createdAt,value
2023-04-21T00:02:55.590Z,7.58
2023-04-21T00:05:55.505Z,7.57
2023-04-21T00:08:55.470Z,7.52
2023-04-21T00:11:55.470Z,7.52
2023-04-21T00:14:55.482Z,7.47
2023-04-21T00:17:55.508Z,7.47
2023-04-21T00:20:55.510Z,7.47
2023-04-21T00:23:55.508Z,7.48
2023-04-21T00:26:55.524Z,7.49
2023-04-21T00:29:55.568Z,7.49
2023-04-21T00:32:55.546Z,7.49
2023-04-21T00:35:55.559Z,7.49
2023-04-21T00:38:55.612Z,7.44
2023-04-21T00:41:55.569Z,7.43
2023-04-21T00:44:55.537Z,7.44
2023-04-21T00:47:55.634Z,7.44
2023-04-21T00:50:55.549Z,7.39
2023-04-21T00:53:55.550Z,7.39
2023-04-21T00:56:55.556Z,7.39
2023-04-21T00:59:55.554Z,7.4
2023-04-21T01:02:55.649Z,7.41
2023-04-21T01:05:55.564Z,7.41
2023-04-21T01:08:55.570Z,7.36
2023-04-21T01:11:55.574Z,7.36
2023-04-21T01:14:55.589Z,7.36
2023-04-21T01:17:55.632Z,7.37
2023-04-21T01:20:55.587Z,7.37
2023-04-21T01:23:55.599Z,7.38
2023-04-21T01:26:55.596Z,7.38
2023-04-21T01:29:55.598Z,7.39
2023-04-21T01:32:55.633Z,7.39
2023-04-21T01:35:55.607Z,7.39
2023-04-21T01:38:55.610Z,7.44
2023-04-21T01:41:55.641Z,7.39
2023-04-21T01:44:55.629Z,7.39
2023-04-21T01:47:55.651Z,7.38
2023-04-21T01:50:55.668Z,7.43
2023-04-21T01:53:55.657Z,7.43
2023-04-21T01:56:55.670Z,7.43
2023-04-21T01:59:55.650Z,7.43
2023-04-21T02:02:55.726Z,7.43
2023-04-21T02:05:55.662Z,7.42
2023-04-21T02:08:55.662Z,7.47
2023-04-21T02:11:55.672Z,7.47
2023-04-21T02:14:55.688Z,7.46
2023-04-21T02:17:55.703Z,7.46
2023-04-21T02:20:55.682Z,7.45
2023-04-21T02:23:55.679Z,7.45
2023-04-21T02:26:55.678Z,7.49
2023-04-21T02:29:55.687Z,7.48
2023-04-21T02:32:55.732Z,7.48
2023-04-21T02:35:55.690Z,7.46
2023-04-21T02:38:55.688Z,7.4
2023-04-21T02:41:55.686Z,7.4
2023-04-21T02:44:55.701Z,7.4
2023-04-21T02:47:55.713Z,7.36
2023-04-21T02:50:55.718Z,7.36
2023-04-21T02:53:55.697Z,7.36
2023-04-21T02:56:55.703Z,7.36
2023-04-21T02:59:55.702Z,7.35
2023-04-21T03:02:55.772Z,7.36
2023-04-21T03:05:55.700Z,7.35
2023-04-21T03:08:55.706Z,7.34
2023-04-21T03:11:55.707Z,7.34
2023-04-21T03:14:55.726Z,7.34
2023-04-21T03:17:55.745Z,7.28
2023-04-21T03:20:55.730Z,7.28
2023-04-21T03:23:55.727Z,7.22
2023-04-21T03:26:55.737Z,7.22
2023-04-21T03:29:55.733Z,7.17
2023-04-21T03:32:55.792Z,7.13
2023-04-21T03:35:55.783Z,7.09
2023-04-21T03:38:59.051Z,7.11
2023-04-21T03:41:55.780Z,7.12
2023-04-21T03:44:55.767Z,7.08
2023-04-21T03:47:55.968Z,7.1
2023-04-21T03:50:55.781Z,7.1
2023-04-21T03:53:55.793Z,7.1
2023-04-21T03:56:55.794Z,7.1
2023-04-21T03:59:55.805Z,7.05
2023-04-21T04:02:55.857Z,7.05
2023-04-21T04:05:55.806Z,7
2023-04-21T04:08:55.812Z,6.95
2023-04-21T04:11:55.816Z,6.97
2023-04-21T04:14:55.818Z,6.99
2023-04-21T04:17:55.865Z,7.04
2023-04-21T04:20:55.824Z,7.05
2023-04-21T04:23:55.839Z,7.06
2023-04-21T04:26:55.837Z,7.06
2023-04-21T04:29:55.837Z,7.06
2023-04-21T04:32:55.857Z,7.11
2023-04-21T04:35:55.838Z,7.1
2023-04-21T04:38:55.849Z,7.15
2023-04-21T04:41:55.852Z,7.13
2023-04-21T04:44:55.855Z,7.13
2023-04-21T04:47:55.876Z,7.13
2023-04-21T04:50:55.878Z,7.17
2023-04-21T04:53:55.873Z,7.16
2023-04-21T04:56:55.873Z,7.15
2023-04-21T04:59:55.878Z,7.18
2023-04-21T05:02:55.968Z,7.21
2023-04-21T05:05:55.890Z,7.24
2023-04-21T05:08:55.889Z,7.27
2023-04-21T05:11:55.898Z,7.29
2023-04-21T05:14:55.904Z,7.32
2023-04-21T05:17:55.938Z,7.33
2023-04-21T05:20:55.912Z,7.34
2023-04-21T05:23:55.923Z,7.35
2023-04-21T05:26:55.930Z,7.42
2023-04-21T05:29:55.952Z,7.43
2023-04-21T05:32:55.953Z,7.44
2023-04-21T05:35:55.941Z,7.47
2023-04-21T05:38:55.940Z,7.49
2023-04-21T05:41:55.940Z,7.51
2023-04-21T05:44:55.958Z,7.58
2023-04-21T05:47:55.987Z,7.65
2023-04-21T05:50:56.014Z,7.73
2023-04-21T05:53:56.017Z,7.83
2023-04-21T05:56:56.008Z,7.89
2023-04-21T05:59:56.014Z,7.96
2023-04-21T06:02:56.102Z,7.99
2023-04-21T06:05:56.090Z,8.01
2023-04-21T06:08:56.022Z,8.04
2023-04-21T06:11:56.026Z,8.1
2023-04-21T06:14:56.034Z,8.14
2023-04-21T06:17:56.059Z,8.02
2023-04-21T06:20:56.050Z,8.07
2023-04-21T06:23:56.039Z,8.17
2023-04-21T06:26:56.034Z,8.25
2023-04-21T06:29:56.057Z,8.13
2023-04-21T06:32:56.068Z,8.16
2023-04-21T06:35:56.039Z,8.16
2023-04-21T06:38:56.046Z,8.06
2023-04-21T06:41:56.124Z,8.19
2023-04-21T06:44:56.043Z,8.27
2023-04-21T06:47:56.068Z,8.11
2023-04-21T06:50:56.041Z,8.24
2023-04-21T06:53:56.050Z,8.29
2023-04-21T06:56:56.045Z,8.26
2023-04-21T06:59:56.050Z,8.37
2023-04-21T07:02:56.141Z,8.3
2023-04-21T07:05:56.055Z,8.3
2023-04-21T07:08:56.054Z,8.22
2023-04-21T07:11:56.083Z,8.34
2023-04-21T07:14:56.072Z,8.39
2023-04-21T07:17:56.086Z,8.34
2023-04-21T07:20:56.060Z,8.2
2023-04-21T07:23:56.070Z,8.33
2023-04-21T07:26:56.066Z,8.33
2023-04-21T07:29:56.067Z,8.34
2023-04-21T07:32:56.139Z,8.29
2023-04-21T07:35:56.073Z,8.2
2023-04-21T07:38:56.072Z,8.56
2023-04-21T07:41:56.067Z,8.61
2023-04-21T07:44:56.095Z,8.58
2023-04-21T07:47:56.134Z,8.48
2023-04-21T07:50:56.203Z,8.59
2023-04-21T07:53:56.077Z,8.72
2023-04-21T07:56:56.076Z,8.61
2023-04-21T07:59:56.080Z,8.51
2023-04-21T08:02:56.108Z,8.52
2023-04-21T08:05:56.316Z,8.51
2023-04-21T08:08:56.090Z,8.38
2023-04-21T08:11:56.109Z,8.45
2023-04-21T08:14:56.088Z,8.5
2023-04-21T08:17:56.130Z,8.51
2023-04-21T08:20:56.089Z,8.59
2023-04-21T08:23:56.124Z,8.6
2023-04-21T08:26:56.089Z,8.59
2023-04-21T08:29:56.101Z,8.42
2023-04-21T08:32:56.122Z,8.23
2023-04-21T08:38:56.090Z,8.31
2023-04-21T08:41:56.093Z,8.34
2023-04-21T08:44:56.100Z,8.47
2023-04-21T08:47:56.116Z,8.52
2023-04-21T08:50:56.099Z,8.5
2023-04-21T08:53:56.106Z,8.27
2023-04-21T08:57:01.673Z,8.41
2023-04-21T08:59:56.108Z,8.36
2023-04-21T09:03:00.528Z,8.53
2023-04-21T09:05:56.285Z,8.35
2023-04-21T09:08:56.344Z,8.25
2023-04-21T09:11:56.120Z,8.4
2023-04-21T09:14:56.152Z,8.21
2023-04-21T09:17:56.137Z,7.97
2023-04-21T09:20:56.129Z,8.26
2023-04-21T09:23:56.128Z,8.3
2023-04-21T09:26:56.145Z,8
2023-04-21T09:29:56.149Z,8
2023-04-21T09:32:56.147Z,8.1
2023-04-21T09:35:56.149Z,8.28
2023-04-21T09:39:12.829Z,8.17
2023-04-21T09:41:56.157Z,8.22
2023-04-21T09:45:06.070Z,7.94
2023-04-21T09:47:56.218Z,7.77
2023-04-21T09:53:56.169Z,7.97
2023-04-21T09:56:56.174Z,7.75
2023-04-21T09:59:56.181Z,8.33
2023-04-21T10:02:56.246Z,7.84
2023-04-21T10:05:56.228Z,7.86
2023-04-21T10:08:56.191Z,8.07
2023-04-21T10:11:56.192Z,7.79
2023-04-21T10:14:56.196Z,7.5
2023-04-21T10:17:56.231Z,7.42
2023-04-21T10:20:56.218Z,7.34
2023-04-21T10:23:56.212Z,7.26
2023-04-21T10:26:56.207Z,7.18
2023-04-21T10:29:57.188Z,7.04
2023-04-21T10:32:56.269Z,7.08
2023-04-21T10:35:56.229Z,7.12
2023-04-21T10:38:56.237Z,7.11
2023-04-21T10:41:56.233Z,7.11
2023-04-21T10:44:56.246Z,7.06
2023-04-21T10:47:56.256Z,7.15
2023-04-21T10:50:56.250Z,7.05
2023-04-21T10:53:56.266Z,6.83
2023-04-21T10:56:56.268Z,7.07
2023-04-21T10:59:56.267Z,6.79
2023-04-21T11:02:56.390Z,6.91
2023-04-21T11:05:56.280Z,6.87
2023-04-21T11:08:56.280Z,6.87
2023-04-21T11:11:56.279Z,6.91
2023-04-21T11:14:56.290Z,7.07
2023-04-21T11:17:56.299Z,6.95
2023-04-21T11:20:56.293Z,6.62
2023-04-21T11:23:56.305Z,6.64
2023-04-21T11:26:56.297Z,6.62
2023-04-21T11:29:56.306Z,6.52
2023-04-21T11:32:56.386Z,6.54
2023-04-21T11:35:56.305Z,6.75
2023-04-21T11:38:56.317Z,6.72
2023-04-21T11:41:56.314Z,6.79
2023-04-21T11:44:56.366Z,6.85
2023-04-21T11:47:56.357Z,6.61
2023-04-21T11:50:56.357Z,6.16
2023-04-21T11:53:56.358Z,6.2
2023-04-21T11:56:56.349Z,6.2
2023-04-21T11:59:56.355Z,6.2
2023-04-21T12:02:56.545Z,6.48
2023-04-21T12:05:56.516Z,6.68
2023-04-21T12:08:56.372Z,6.71
2023-04-21T12:11:56.385Z,6.85
2023-04-21T12:14:56.387Z,6.65
2023-04-21T12:17:56.413Z,6.71
2023-04-21T12:20:56.401Z,6.7
2023-04-21T12:23:56.426Z,6.79
2023-04-21T12:26:56.416Z,6.5
2023-04-21T12:29:56.436Z,6.69
2023-04-21T12:32:56.523Z,6.6
2023-04-21T12:35:56.448Z,6.6
2023-04-21T12:38:56.447Z,6.64
2023-04-21T12:41:56.449Z,6.67
2023-04-21T12:44:56.453Z,6.73
2023-04-21T12:47:56.485Z,6.77
2023-04-21T12:50:56.491Z,6.7
2023-04-21T12:53:56.486Z,6.6
2023-04-21T12:56:56.493Z,6.47
2023-04-21T12:59:56.513Z,6.63
2023-04-21T13:02:56.590Z,6.65
2023-04-21T13:05:56.531Z,6.39
2023-04-21T13:08:56.529Z,6.32
2023-04-21T13:11:56.548Z,6.26
2023-04-21T13:14:56.554Z,6.28
2023-04-21T13:17:56.560Z,6.34
2023-04-21T13:20:56.572Z,6.39
2023-04-21T13:23:56.578Z,6.37
2023-04-21T13:26:56.584Z,6.39
2023-04-21T13:29:56.600Z,6.56
2023-04-21T13:32:56.626Z,6.47
2023-04-21T13:35:56.605Z,6.43
2023-04-21T13:38:56.633Z,6.41
2023-04-21T13:41:56.709Z,6.52
2023-04-21T13:44:56.654Z,6.68
2023-04-21T13:47:56.670Z,6.56
2023-04-21T13:50:56.713Z,6.5
2023-04-21T13:53:56.693Z,6.54
2023-04-21T13:56:56.711Z,6.49
2023-04-21T13:59:56.701Z,6.47
2023-04-21T14:02:56.909Z,6.45
2023-04-21T14:05:56.906Z,6.47
2023-04-21T14:08:56.718Z,6.45
2023-04-21T14:11:56.721Z,6.41
2023-04-21T14:14:56.771Z,6.52
2023-04-21T14:17:56.844Z,6.53
2023-04-21T14:20:56.776Z,6.57
2023-04-21T14:23:56.743Z,6.55
2023-04-21T14:26:56.759Z,6.5
2023-04-21T14:29:56.785Z,6.59
2023-04-21T14:32:56.785Z,6.6
2023-04-21T14:35:56.808Z,6.37
2023-04-21T14:38:56.798Z,6.48
2023-04-21T14:41:56.783Z,6.52
2023-04-21T14:44:56.860Z,6.74
2023-04-21T14:47:56.885Z,6.3
2023-04-21T14:50:56.797Z,6.28
2023-04-21T14:53:56.824Z,6.28
2023-04-21T14:57:06.992Z,6.26
2023-04-21T14:59:56.878Z,6.48
2023-04-21T15:02:56.863Z,6.52
2023-04-21T15:05:56.838Z,6.59
2023-04-21T15:08:56.835Z,6.55
2023-04-21T15:11:56.831Z,6.53
2023-04-21T15:14:56.861Z,6.53
2023-04-21T15:17:56.931Z,6.53
2023-04-21T15:20:56.865Z,6.48
2023-04-21T15:23:56.858Z,6.44
2023-04-21T15:26:56.859Z,6.53
2023-04-21T15:29:56.870Z,6.46
2023-04-21T15:32:56.885Z,6.35
2023-04-21T15:35:56.879Z,6.42
2023-04-21T15:38:56.877Z,6.41
2023-04-21T15:41:56.929Z,6.35
2023-04-21T15:44:56.921Z,6.35
2023-04-21T15:47:56.948Z,6.28
2023-04-21T15:50:56.909Z,6.37
2023-04-21T15:53:56.901Z,6.37
2023-04-21T15:56:56.977Z,6.3
2023-04-21T15:59:57.000Z,6.28
2023-04-21T16:02:57.037Z,6.21
2023-04-21T16:05:57.116Z,6.19
2023-04-21T16:08:56.928Z,6.12
2023-04-21T16:11:56.999Z,6.17
2023-04-21T16:15:03.823Z,6.22
2023-04-21T16:17:56.998Z,6.22
2023-04-21T16:20:57.007Z,6.24
2023-04-21T16:23:57.026Z,6.34
2023-04-21T16:26:56.951Z,6.46
2023-04-21T16:29:57.016Z,6.42
2023-04-21T16:32:56.978Z,6.39
2023-04-21T16:35:57.559Z,6.36
2023-04-21T16:38:56.991Z,6.4
2023-04-21T16:41:56.972Z,6.32
2023-04-21T16:44:56.997Z,6.37
2023-04-21T16:47:57.153Z,6.33
2023-04-21T16:50:57.028Z,6.37
2023-04-21T16:53:57.015Z,6.35
2023-04-21T16:56:57.008Z,6.53
2023-04-21T16:59:57.004Z,6.63
2023-04-21T17:02:57.099Z,6.64
2023-04-21T17:05:57.007Z,6.69
2023-04-21T17:08:57.022Z,6.71
2023-04-21T17:11:57.016Z,6.74
2023-04-21T17:14:57.032Z,6.75
2023-04-21T17:17:57.058Z,6.69
2023-04-21T17:20:57.045Z,6.67
2023-04-21T17:23:57.062Z,6.65
2023-04-21T17:26:57.051Z,6.72
2023-04-21T17:29:57.054Z,6.59
2023-04-21T17:33:04.553Z,6.62
2023-04-21T17:38:57.068Z,6.6
2023-04-21T17:41:57.064Z,6.62
2023-04-21T17:44:57.073Z,6.64
2023-04-21T17:47:57.076Z,6.62
2023-04-21T17:50:57.073Z,6.6
2023-04-21T17:53:57.082Z,6.59
2023-04-21T17:56:57.084Z,6.6
2023-04-21T17:59:57.082Z,6.56
2023-04-21T18:02:57.203Z,6.6
2023-04-21T18:05:57.096Z,6.53
2023-04-21T18:08:57.103Z,6.57
2023-04-21T18:11:57.114Z,6.53
2023-04-21T18:14:57.100Z,6.51
2023-04-21T18:17:57.168Z,6.5
2023-04-21T18:20:57.121Z,6.53
2023-04-21T18:23:57.119Z,6.5
2023-04-21T18:26:57.132Z,6.46
2023-04-21T18:29:57.132Z,6.45
2023-04-21T18:32:57.186Z,6.48
2023-04-21T18:35:57.135Z,6.43
2023-04-21T18:38:57.145Z,6.46
2023-04-21T18:41:57.150Z,6.46
2023-04-21T18:44:58.148Z,6.47
2023-04-21T18:47:57.202Z,6.47
2023-04-21T18:50:57.170Z,6.46
2023-04-21T18:53:57.176Z,6.47
2023-04-21T18:56:57.185Z,6.5
2023-04-21T18:59:57.187Z,6.57
2023-04-21T19:02:57.274Z,6.59
2023-04-21T19:05:57.185Z,6.57
2023-04-21T19:08:57.193Z,6.57
2023-04-21T19:11:57.190Z,6.58
2023-04-21T19:14:57.216Z,6.59
2023-04-21T19:17:57.244Z,6.57
2023-04-21T19:20:57.210Z,6.55
2023-04-21T19:23:58.077Z,6.55
2023-04-21T19:26:57.216Z,6.53
2023-04-21T19:29:57.231Z,6.56
2023-04-21T19:32:57.240Z,6.55
2023-04-21T19:35:57.241Z,6.57
2023-04-21T19:38:57.239Z,6.56
2023-04-21T19:41:57.243Z,6.56
2023-04-21T19:44:57.249Z,6.58
2023-04-21T19:47:57.282Z,6.58
2023-04-21T19:50:57.267Z,6.61
2023-04-21T19:54:07.746Z,6.62
2023-04-21T19:56:57.279Z,6.62
2023-04-21T19:59:57.286Z,6.63
2023-04-21T20:02:57.342Z,6.62
2023-04-21T20:05:57.286Z,6.63
2023-04-21T20:08:57.304Z,6.64
2023-04-21T20:11:57.296Z,6.63
2023-04-21T20:14:57.307Z,6.65
2023-04-21T20:17:57.319Z,6.65
2023-04-21T20:20:57.341Z,6.63
2023-04-21T20:23:57.328Z,6.67
2023-04-21T20:26:57.324Z,6.7
2023-04-21T20:29:57.334Z,6.71
2023-04-21T20:32:57.331Z,6.68
2023-04-21T20:35:57.344Z,6.68
2023-04-21T20:38:57.353Z,6.71
2023-04-21T20:42:09.182Z,6.72
2023-04-21T20:44:57.351Z,6.72
2023-04-21T20:47:57.368Z,6.73
2023-04-21T20:50:57.364Z,6.73
2023-04-21T20:53:57.363Z,6.77
2023-04-21T20:56:57.365Z,6.78
2023-04-21T20:59:57.396Z,6.76
2023-04-21T21:02:57.468Z,6.77
2023-04-21T21:05:57.381Z,6.79
2023-04-21T21:08:57.381Z,6.77
2023-04-21T21:11:57.421Z,6.79
2023-04-21T21:14:57.415Z,6.77
2023-04-21T21:17:57.457Z,6.76
2023-04-21T21:20:57.388Z,6.8
2023-04-21T21:23:57.404Z,6.77
2023-04-21T21:26:57.409Z,6.76
2023-04-21T21:29:57.414Z,6.77
2023-04-21T21:32:57.467Z,6.81
2023-04-21T21:35:57.416Z,6.77
2023-04-21T21:38:57.411Z,6.81
2023-04-21T21:41:57.425Z,6.77
2023-04-21T21:44:57.431Z,6.8
2023-04-21T21:47:57.449Z,6.78
2023-04-21T21:50:57.445Z,6.79
2023-04-21T21:53:57.441Z,6.79
2023-04-21T21:56:57.464Z,6.81
2023-04-21T21:59:57.458Z,6.78
2023-04-21T22:02:57.529Z,6.79
2023-04-21T22:05:57.459Z,6.76
2023-04-21T22:08:57.479Z,6.79
2023-04-21T22:11:57.479Z,6.74
2023-04-21T22:14:57.472Z,6.76
2023-04-21T22:17:57.512Z,6.78
2023-04-21T22:20:57.486Z,6.74
2023-04-21T22:23:57.490Z,6.75
2023-04-21T22:26:57.498Z,6.72
2023-04-21T22:29:57.491Z,6.7
2023-04-21T22:32:57.548Z,6.7
2023-04-21T22:35:57.515Z,6.71
2023-04-21T22:38:57.508Z,6.7
2023-04-21T22:41:57.515Z,6.68
2023-04-21T22:44:57.524Z,6.69
2023-04-21T22:47:57.562Z,6.67
2023-04-21T22:50:57.538Z,6.64
2023-04-21T22:53:57.535Z,6.65
2023-04-21T22:56:57.534Z,6.66
2023-04-21T22:59:57.535Z,6.64
2023-04-21T23:02:57.635Z,6.61
2023-04-21T23:05:57.552Z,6.62
2023-04-21T23:08:57.556Z,6.63
2023-04-21T23:11:57.559Z,6.59
2023-04-21T23:14:57.565Z,6.61
2023-04-21T23:17:57.591Z,6.59
2023-04-21T23:20:57.572Z,6.6
2023-04-21T23:23:57.572Z,6.57
2023-04-21T23:26:57.585Z,6.58
2023-04-21T23:29:57.584Z,6.59
2023-04-21T23:32:57.616Z,6.57
2023-04-21T23:35:57.613Z,6.57
2023-04-21T23:38:57.599Z,6.58
2023-04-21T23:41:57.600Z,6.55
2023-04-21T23:44:57.605Z,6.57
2023-04-21T23:47:57.630Z,6.55
2023-04-21T23:50:57.673Z,6.52
2023-04-21T23:53:57.617Z,6.54
2023-04-21T23:56:57.611Z,6.52
2023-04-21T23:59:57.617Z,6.54
